Tanais Express — V3OQ8 — position and weather

sailwx.info

Track history (hours):
 
Tides and Currents Weather Stations Pressure Air Temp Water Temp Dewpoint Dewpoint Depression Visibility Wind Speed Wind Dir Waves Ship Positions

Tanais Express

Last reported at 2014-Dec-22 19:33 UTC. Time now 2014-Dec-22 19:55 UTC.
Position N 46°51' E 031°59'.

Length 159 m; draft 5.5 m.

Type: Cargo ship. MMSI: 312655000.

Date/timePositionNaut miles runAvg speedWind from/ knotsBaromVisibWave heightAir tempDewpointWater temp
2014-Dec-22 19:33N 46°51' E 031°59'0 0.0
2014-Dec-22 18:33N 46°51' E 031°59'0 0.0
2014-Dec-22 17:24N 46°51' E 031°59'0 0.0
2014-Dec-22 16:33N 46°51' E 031°59'0 0.0
2014-Dec-22 15:33N 46°51' E 031°59'0 0.0
2014-Dec-22 14:33N 46°51' E 031°59'0 0.0
2014-Dec-22 13:33N 46°51' E 031°59'0 0.0
2014-Dec-22 12:33N 46°51' E 031°59'0 0.0
2014-Dec-22 11:33N 46°51' E 031°59'0 0.0
2014-Dec-22 10:33N 46°51' E 031°59'0 0.3
2014-Dec-22 09:33N 46°51' E 031°59'7 7.1
2014-Dec-22 08:33N 46°45' E 031°54'9 8.6
2014-Dec-22 07:30N 46°36' E 031°50'  
2014-Dec-17 07:32N 40°57' E 028°59'16 5.1
2014-Dec-17 04:28N 40°46' E 028°44'0 0.1
2014-Dec-17 03:29N 40°46' E 028°44'144 5.0
2014-Dec-15 22:30N 39°48' E 025°51'22011.6
2014-Dec-15 03:31N 36°38' E 023°31'  
Track history (hours):
 
Tides and Currents Weather Stations Pressure Air Temp Water Temp Dewpoint Dewpoint Depression Visibility Wind Speed Wind Dir Waves Ship Positions

Tanais Express

Last reported at 2014-Dec-22 19:33 UTC. Time now 2014-Dec-22 19:55 UTC.
Position N 46°51' E 031°59'.

Length 159 m; draft 5.5 m.

Type: Cargo ship. MMSI: 312655000.

Date/timePositionNaut miles runAvg speedWind from/ knotsBaromVisibWave heightAir tempDewpointWater temp
2014-Dec-22 19:33N 46°51' E 031°59'0 0.0
2014-Dec-22 18:33N 46°51' E 031°59'0 0.0
2014-Dec-22 17:24N 46°51' E 031°59'0 0.0
2014-Dec-22 16:33N 46°51' E 031°59'0 0.0
2014-Dec-22 15:33N 46°51' E 031°59'0 0.0
2014-Dec-22 14:33N 46°51' E 031°59'0 0.0
2014-Dec-22 13:33N 46°51' E 031°59'0 0.0
2014-Dec-22 12:33N 46°51' E 031°59'0 0.0
2014-Dec-22 11:33N 46°51' E 031°59'0 0.0
2014-Dec-22 10:33N 46°51' E 031°59'0 0.3
2014-Dec-22 09:33N 46°51' E 031°59'7 7.1
2014-Dec-22 08:33N 46°45' E 031°54'9 8.6
2014-Dec-22 07:30N 46°36' E 031°50'  
2014-Dec-17 07:32N 40°57' E 028°59'16 5.1
2014-Dec-17 04:28N 40°46' E 028°44'0 0.1
2014-Dec-17 03:29N 40°46' E 028°44'144 5.0
2014-Dec-15 22:30N 39°48' E 025°51'22011.6
2014-Dec-15 03:31N 36°38' E 023°31'  

Dump ship's entire track history